sensor_id;sensor_type;location;lat;lon;timestamp;pressure;altitude;pressure_sealevel;temperature;humidity
740;BME280;354;42.694;23.336;2023-09-12T00:02:10;95468.09;;;14.99;100.00
740;BME280;354;42.694;23.336;2023-09-12T00:04:36;95473.31;;;14.94;100.00
740;BME280;354;42.694;23.336;2023-09-12T00:07:01;95469.94;;;14.87;100.00
740;BME280;354;42.694;23.336;2023-09-12T00:09:27;95464.66;;;14.87;100.00
740;BME280;354;42.694;23.336;2023-09-12T00:11:53;95466.97;;;14.84;100.00
740;BME280;354;42.694;23.336;2023-09-12T00:14:19;95474.56;;;14.80;100.00
740;BME280;354;42.694;23.336;2023-09-12T00:16:44;95474.56;;;14.80;100.00
740;BME280;354;42.694;23.336;2023-09-12T00:19:09;95470.91;;;14.69;100.00
740;BME280;354;42.694;23.336;2023-09-12T00:21:35;95467.09;;;14.65;100.00
740;BME280;354;42.694;23.336;2023-09-12T00:24:00;95479.28;;;14.66;100.00
740;BME280;354;42.694;23.336;2023-09-12T00:26:26;95478.72;;;14.64;100.00
740;BME280;354;42.694;23.336;2023-09-12T00:28:51;95470.28;;;14.56;100.00
740;BME280;354;42.694;23.336;2023-09-12T00:31:17;95473.66;;;14.51;100.00
740;BME280;354;42.694;23.336;2023-09-12T00:33:42;95487.81;;;14.57;100.00
740;BME280;354;42.694;23.336;2023-09-12T00:36:07;95484.25;;;14.63;100.00
740;BME280;354;42.694;23.336;2023-09-12T00:38:33;95490.56;;;14.50;100.00
740;BME280;354;42.694;23.336;2023-09-12T00:40:58;95482.03;;;14.48;100.00
740;BME280;354;42.694;23.336;2023-09-12T00:43:24;95488.94;;;14.49;100.00
740;BME280;354;42.694;23.336;2023-09-12T00:45:49;95485.00;;;14.40;100.00
740;BME280;354;42.694;23.336;2023-09-12T00:48:15;95478.88;;;14.28;100.00
740;BME280;354;42.694;23.336;2023-09-12T00:50:43;95489.13;;;14.36;100.00
740;BME280;354;42.694;23.336;2023-09-12T00:53:09;95494.88;;;14.33;100.00
740;BME280;354;42.694;23.336;2023-09-12T00:55:36;95500.75;;;14.35;100.00
740;BME280;354;42.694;23.336;2023-09-12T00:58:02;95492.91;;;14.28;100.00
740;BME280;354;42.694;23.336;2023-09-12T01:00:28;95490.47;;;14.15;100.00
740;BME280;354;42.694;23.336;2023-09-12T01:02:53;95502.09;;;14.14;100.00
740;BME280;354;42.694;23.336;2023-09-12T01:05:20;95503.94;;;14.13;100.00
740;BME280;354;42.694;23.336;2023-09-12T01:07:46;95507.47;;;14.07;100.00
740;BME280;354;42.694;23.336;2023-09-12T01:10:12;95509.31;;;14.07;100.00
740;BME280;354;42.694;23.336;2023-09-12T01:12:37;95507.25;;;14.09;100.00
740;BME280;354;42.694;23.336;2023-09-12T01:15:04;95509.22;;;14.13;100.00
740;BME280;354;42.694;23.336;2023-09-12T01:17:40;95501.97;;;14.20;100.00
740;BME280;354;42.694;23.336;2023-09-12T01:20:11;95507.97;;;14.28;100.00
740;BME280;354;42.694;23.336;2023-09-12T01:23:32;95505.78;;;14.13;100.00
740;BME280;354;42.694;23.336;2023-09-12T01:26:49;95513.06;;;13.99;100.00
740;BME280;354;42.694;23.336;2023-09-12T01:28:51;95508.56;;;13.88;100.00
740;BME280;354;42.694;23.336;2023-09-12T01:31:20;95497.97;;;13.88;100.00
740;BME280;354;42.694;23.336;2023-09-12T01:33:45;95513.84;;;13.88;100.00
740;BME280;354;42.694;23.336;2023-09-12T01:36:11;95506.16;;;13.86;100.00
740;BME280;354;42.694;23.336;2023-09-12T01:38:36;95507.03;;;13.80;100.00
740;BME280;354;42.694;23.336;2023-09-12T01:41:02;95510.50;;;13.81;100.00
740;BME280;354;42.694;23.336;2023-09-12T01:43:29;95516.25;;;13.89;100.00
740;BME280;354;42.694;23.336;2023-09-12T01:45:58;95510.41;;;13.87;100.00
740;BME280;354;42.694;23.336;2023-09-12T01:48:30;95510.63;;;13.86;100.00
740;BME280;354;42.694;23.336;2023-09-12T01:50:59;95519.13;;;13.88;100.00
740;BME280;354;42.694;23.336;2023-09-12T01:53:26;95512.31;;;13.80;100.00
740;BME280;354;42.694;23.336;2023-09-12T01:55:51;95519.00;;;13.83;100.00
740;BME280;354;42.694;23.336;2023-09-12T01:58:17;95523.44;;;13.70;100.00
740;BME280;354;42.694;23.336;2023-09-12T02:00:43;95506.91;;;13.57;100.00
740;BME280;354;42.694;23.336;2023-09-12T02:03:08;95523.94;;;13.61;100.00
740;BME280;354;42.694;23.336;2023-09-12T02:05:34;95520.44;;;13.49;100.00
740;BME280;354;42.694;23.336;2023-09-12T02:07:59;95512.81;;;13.40;100.00
740;BME280;354;42.694;23.336;2023-09-12T02:10:27;95523.53;;;13.45;100.00
740;BME280;354;42.694;23.336;2023-09-12T02:12:53;95526.72;;;13.36;100.00
740;BME280;354;42.694;23.336;2023-09-12T02:15:18;95528.75;;;13.34;100.00
740;BME280;354;42.694;23.336;2023-09-12T02:17:44;95518.78;;;13.36;100.00
740;BME280;354;42.694;23.336;2023-09-12T02:20:09;95523.84;;;13.37;100.00
740;BME280;354;42.694;23.336;2023-09-12T02:22:36;95526.97;;;13.28;100.00
740;BME280;354;42.694;23.336;2023-09-12T02:25:05;95525.81;;;13.24;100.00
740;BME280;354;42.694;23.336;2023-09-12T02:27:31;95530.66;;;13.27;100.00
740;BME280;354;42.694;23.336;2023-09-12T02:29:56;95525.41;;;13.20;100.00
740;BME280;354;42.694;23.336;2023-09-12T02:32:22;95526.88;;;13.16;100.00
740;BME280;354;42.694;23.336;2023-09-12T02:34:47;95532.75;;;13.18;100.00
740;BME280;354;42.694;23.336;2023-09-12T02:37:13;95523.66;;;13.14;100.00
740;BME280;354;42.694;23.336;2023-09-12T02:39:38;95529.00;;;13.07;100.00
740;BME280;354;42.694;23.336;2023-09-12T02:42:04;95526.97;;;13.09;100.00
740;BME280;354;42.694;23.336;2023-09-12T02:44:29;95538.03;;;13.18;100.00
740;BME280;354;42.694;23.336;2023-09-12T02:46:55;95538.09;;;13.11;100.00
740;BME280;354;42.694;23.336;2023-09-12T02:49:20;95518.56;;;12.94;100.00
740;BME280;354;42.694;23.336;2023-09-12T02:51:45;95534.00;;;12.97;100.00
740;BME280;354;42.694;23.336;2023-09-12T02:54:11;95536.81;;;12.96;100.00
740;BME280;354;42.694;23.336;2023-09-12T02:56:36;95524.72;;;12.88;100.00
740;BME280;354;42.694;23.336;2023-09-12T02:59:02;95542.91;;;12.96;100.00
740;BME280;354;42.694;23.336;2023-09-12T03:01:27;95515.47;;;12.79;100.00
740;BME280;354;42.694;23.336;2023-09-12T03:03:53;95547.03;;;12.92;100.00
740;BME280;354;42.694;23.336;2023-09-12T03:06:19;95545.84;;;12.88;100.00
740;BME280;354;42.694;23.336;2023-09-12T03:08:46;95537.53;;;12.84;100.00
740;BME280;354;42.694;23.336;2023-09-12T03:11:11;95548.31;;;12.83;100.00
740;BME280;354;42.694;23.336;2023-09-12T03:13:38;95539.53;;;12.89;100.00
740;BME280;354;42.694;23.336;2023-09-12T03:16:04;95545.41;;;12.91;100.00
740;BME280;354;42.694;23.336;2023-09-12T03:18:30;95548.72;;;12.86;100.00
740;BME280;354;42.694;23.336;2023-09-12T03:20:55;95547.28;;;12.84;100.00
740;BME280;354;42.694;23.336;2023-09-12T03:23:21;95548.75;;;12.80;100.00
740;BME280;354;42.694;23.336;2023-09-12T03:25:46;95560.13;;;12.80;100.00
740;BME280;354;42.694;23.336;2023-09-12T03:28:11;95555.28;;;12.77;100.00
740;BME280;354;42.694;23.336;2023-09-12T03:30:37;95558.16;;;12.76;100.00
740;BME280;354;42.694;23.336;2023-09-12T03:33:03;95556.16;;;12.71;100.00
740;BME280;354;42.694;23.336;2023-09-12T03:35:30;95550.88;;;12.71;100.00
740;BME280;354;42.694;23.336;2023-09-12T03:37:56;95558.78;;;12.71;100.00
740;BME280;354;42.694;23.336;2023-09-12T03:40:21;95561.09;;;12.61;100.00
740;BME280;354;42.694;23.336;2023-09-12T03:42:47;95564.16;;;12.58;100.00
740;BME280;354;42.694;23.336;2023-09-12T03:45:12;95562.94;;;12.60;100.00
740;BME280;354;42.694;23.336;2023-09-12T03:47:37;95557.25;;;12.57;100.00
740;BME280;354;42.694;23.336;2023-09-12T03:50:03;95558.25;;;12.62;100.00
740;BME280;354;42.694;23.336;2023-09-12T03:52:29;95550.66;;;12.48;100.00
740;BME280;354;42.694;23.336;2023-09-12T03:54:54;95565.88;;;12.46;100.00
740;BME280;354;42.694;23.336;2023-09-12T03:57:20;95554.97;;;12.35;100.00
740;BME280;354;42.694;23.336;2023-09-12T03:59:45;95562.25;;;12.40;100.00
740;BME280;354;42.694;23.336;2023-09-12T04:02:12;95567.19;;;12.36;100.00
740;BME280;354;42.694;23.336;2023-09-12T04:04:37;95563.28;;;12.39;100.00
740;BME280;354;42.694;23.336;2023-09-12T04:07:03;95567.75;;;12.38;100.00
740;BME280;354;42.694;23.336;2023-09-12T04:09:29;95561.91;;;12.30;100.00
740;BME280;354;42.694;23.336;2023-09-12T04:11:54;95566.31;;;12.43;100.00
740;BME280;354;42.694;23.336;2023-09-12T04:14:20;95564.31;;;12.38;100.00
740;BME280;354;42.694;23.336;2023-09-12T04:16:46;95565.94;;;12.39;100.00
740;BME280;354;42.694;23.336;2023-09-12T04:19:13;95562.25;;;12.40;100.00
740;BME280;354;42.694;23.336;2023-09-12T04:21:38;95567.53;;;12.40;100.00
740;BME280;354;42.694;23.336;2023-09-12T04:24:04;95568.47;;;12.52;100.00
740;BME280;354;42.694;23.336;2023-09-12T04:26:29;95564.53;;;12.61;100.00
740;BME280;354;42.694;23.336;2023-09-12T04:28:55;95567.13;;;12.68;100.00
740;BME280;354;42.694;23.336;2023-09-12T04:31:20;95571.97;;;12.71;100.00
740;BME280;354;42.694;23.336;2023-09-12T04:33:45;95578.06;;;12.72;100.00
740;BME280;354;42.694;23.336;2023-09-12T04:36:11;95572.72;;;12.78;100.00
740;BME280;354;42.694;23.336;2023-09-12T04:38:36;95571.31;;;13.01;100.00
740;BME280;354;42.694;23.336;2023-09-12T04:41:03;95569.63;;;13.06;100.00
740;BME280;354;42.694;23.336;2023-09-12T04:43:33;95566.91;;;13.13;100.00
740;BME280;354;42.694;23.336;2023-09-12T04:45:59;95578.94;;;13.34;100.00
740;BME280;354;42.694;23.336;2023-09-12T04:48:24;95569.63;;;13.50;100.00
740;BME280;354;42.694;23.336;2023-09-12T04:50:50;95567.41;;;13.65;100.00
740;BME280;354;42.694;23.336;2023-09-12T04:53:15;95564.97;;;13.82;100.00
740;BME280;354;42.694;23.336;2023-09-12T04:55:41;95569.41;;;14.00;100.00
740;BME280;354;42.694;23.336;2023-09-12T04:58:07;95565.34;;;14.15;100.00
740;BME280;354;42.694;23.336;2023-09-12T05:00:32;95563.53;;;14.28;100.00
740;BME280;354;42.694;23.336;2023-09-12T05:02:58;95560.72;;;14.41;100.00
740;BME280;354;42.694;23.336;2023-09-12T05:05:23;95562.91;;;14.44;100.00
740;BME280;354;42.694;23.336;2023-09-12T05:07:50;95566.63;;;14.55;100.00
740;BME280;354;42.694;23.336;2023-09-12T05:10:16;95559.75;;;14.65;100.00
740;BME280;354;42.694;23.336;2023-09-12T05:12:42;95561.28;;;14.85;100.00
740;BME280;354;42.694;23.336;2023-09-12T05:15:07;95557.59;;;14.97;100.00
740;BME280;354;42.694;23.336;2023-09-12T05:17:33;95567.38;;;15.32;100.00
740;BME280;354;42.694;23.336;2023-09-12T05:19:58;95562.06;;;15.67;100.00
740;BME280;354;42.694;23.336;2023-09-12T05:22:23;95558.97;;;15.99;100.00
740;BME280;354;42.694;23.336;2023-09-12T05:24:49;95558.75;;;16.17;100.00
740;BME280;354;42.694;23.336;2023-09-12T05:27:14;95566.16;;;16.60;100.00
740;BME280;354;42.694;23.336;2023-09-12T05:29:40;95569.66;;;16.78;100.00
740;BME280;354;42.694;23.336;2023-09-12T05:32:05;95573.00;;;17.24;100.00
740;BME280;354;42.694;23.336;2023-09-12T05:34:31;95566.03;;;17.78;100.00
740;BME280;354;42.694;23.336;2023-09-12T05:36:56;95567.72;;;18.33;100.00
740;BME280;354;42.694;23.336;2023-09-12T05:39:22;95566.41;;;18.95;100.00
740;BME280;354;42.694;23.336;2023-09-12T05:41:48;95574.19;;;19.81;100.00
740;BME280;354;42.694;23.336;2023-09-12T05:44:13;95570.16;;;20.57;99.39
740;BME280;354;42.694;23.336;2023-09-12T05:46:44;95573.38;;;20.84;92.27
740;BME280;354;42.694;23.336;2023-09-12T05:49:09;95577.09;;;21.54;86.73
740;BME280;354;42.694;23.336;2023-09-12T05:51:35;95567.31;;;21.99;83.45
740;BME280;354;42.694;23.336;2023-09-12T05:54:00;95573.94;;;22.17;77.99
740;BME280;354;42.694;23.336;2023-09-12T05:56:26;95573.28;;;22.41;75.83
740;BME280;354;42.694;23.336;2023-09-12T05:58:52;95571.13;;;21.83;88.88
740;BME280;354;42.694;23.336;2023-09-12T06:01:17;95572.25;;;21.67;80.88
740;BME280;354;42.694;23.336;2023-09-12T06:03:43;95573.84;;;21.63;81.48
740;BME280;354;42.694;23.336;2023-09-12T06:06:08;95572.31;;;21.21;84.63
740;BME280;354;42.694;23.336;2023-09-12T06:08:33;95573.09;;;20.65;86.33
740;BME280;354;42.694;23.336;2023-09-12T06:10:59;95559.91;;;20.23;90.89
740;BME280;354;42.694;23.336;2023-09-12T06:13:24;95578.50;;;19.92;95.16
740;BME280;354;42.694;23.336;2023-09-12T06:15:50;95563.84;;;19.47;96.07
740;BME280;354;42.694;23.336;2023-09-12T06:18:15;95564.22;;;19.19;100.00
740;BME280;354;42.694;23.336;2023-09-12T06:20:40;95579.00;;;19.00;100.00
740;BME280;354;42.694;23.336;2023-09-12T06:23:07;95581.00;;;18.82;100.00
740;BME280;354;42.694;23.336;2023-09-12T06:25:32;95554.25;;;18.45;100.00
740;BME280;354;42.694;23.336;2023-09-12T06:27:59;95584.41;;;18.51;100.00
740;BME280;354;42.694;23.336;2023-09-12T06:30:24;95586.75;;;18.20;100.00
740;BME280;354;42.694;23.336;2023-09-12T06:32:50;95583.84;;;18.22;100.00
740;BME280;354;42.694;23.336;2023-09-12T06:35:15;95577.59;;;18.11;100.00
740;BME280;354;42.694;23.336;2023-09-12T06:37:40;95586.44;;;18.16;100.00
740;BME280;354;42.694;23.336;2023-09-12T06:40:07;95584.16;;;18.25;100.00
740;BME280;354;42.694;23.336;2023-09-12T06:42:32;95588.75;;;18.30;100.00
740;BME280;354;42.694;23.336;2023-09-12T06:44:57;95589.47;;;18.25;100.00
740;BME280;354;42.694;23.336;2023-09-12T06:47:23;95591.69;;;18.33;100.00
740;BME280;354;42.694;23.336;2023-09-12T09:09:06;95555.50;;;22.11;63.42
740;BME280;354;42.694;23.336;2023-09-12T09:11:33;95561.59;;;22.21;61.70
740;BME280;354;42.694;23.336;2023-09-12T09:14:00;95555.34;;;22.36;61.97
740;BME280;354;42.694;23.336;2023-09-12T09:16:26;95552.34;;;22.48;60.28
740;BME280;354;42.694;23.336;2023-09-12T09:19:04;95550.13;;;22.55;60.06
740;BME280;354;42.694;23.336;2023-09-12T09:21:37;95549.31;;;22.59;60.46
740;BME280;354;42.694;23.336;2023-09-12T09:24:08;95546.56;;;22.70;59.22
740;BME280;354;42.694;23.336;2023-09-12T09:26:44;95541.41;;;22.73;58.64
740;BME280;354;42.694;23.336;2023-09-12T09:29:20;95543.75;;;22.85;58.29
740;BME280;354;42.694;23.336;2023-09-12T09:31:47;95538.66;;;22.88;57.93
740;BME280;354;42.694;23.336;2023-09-12T09:34:18;95544.28;;;22.92;58.68
740;BME280;354;42.694;23.336;2023-09-12T09:36:50;95540.69;;;23.02;59.33
740;BME280;354;42.694;23.336;2023-09-12T09:39:17;95531.03;;;23.01;58.52
740;BME280;354;42.694;23.336;2023-09-12T09:41:47;95533.06;;;23.14;58.92
740;BME280;354;42.694;23.336;2023-09-12T09:44:14;95520.47;;;23.14;56.49
740;BME280;354;42.694;23.336;2023-09-12T09:46:42;95530.22;;;23.29;55.68
740;BME280;354;42.694;23.336;2023-09-12T09:49:10;95525.13;;;23.28;56.07
740;BME280;354;42.694;23.336;2023-09-12T09:51:45;95526.38;;;23.40;56.54
740;BME280;354;42.694;23.336;2023-09-12T09:54:14;95529.22;;;23.49;57.32
740;BME280;354;42.694;23.336;2023-09-12T09:56:48;95522.91;;;23.64;59.03
740;BME280;354;42.694;23.336;2023-09-12T09:59:14;95516.16;;;23.66;56.39
740;BME280;354;42.694;23.336;2023-09-12T10:01:41;95511.91;;;23.60;54.27
740;BME280;354;42.694;23.336;2023-09-12T10:04:09;95511.03;;;23.70;54.35
740;BME280;354;42.694;23.336;2023-09-12T10:06:36;95510.16;;;23.75;52.80
740;BME280;354;42.694;23.336;2023-09-12T10:09:06;95511.13;;;23.84;52.90
740;BME280;354;42.694;23.336;2023-09-12T10:11:33;95506.78;;;23.88;53.44
740;BME280;354;42.694;23.336;2023-09-12T10:14:03;95509.09;;;23.95;55.12
740;BME280;354;42.694;23.336;2023-09-12T10:16:33;95501.69;;;24.05;52.53
740;BME280;354;42.694;23.336;2023-09-12T10:19:15;95490.63;;;24.12;51.24
740;BME280;354;42.694;23.336;2023-09-12T10:22:12;95498.31;;;24.18;51.06
740;BME280;354;42.694;23.336;2023-09-12T10:24:44;95491.78;;;24.25;52.52
740;BME280;354;42.694;23.336;2023-09-12T10:27:11;95491.59;;;24.40;51.53
740;BME280;354;42.694;23.336;2023-09-12T10:29:37;95490.13;;;24.48;51.48
740;BME280;354;42.694;23.336;2023-09-12T10:32:03;95487.28;;;24.58;50.98
740;BME280;354;42.694;23.336;2023-09-12T10:34:30;95489.28;;;24.66;48.80
740;BME280;354;42.694;23.336;2023-09-12T10:36:58;95487.81;;;24.74;48.48
740;BME280;354;42.694;23.336;2023-09-12T10:39:31;95480.03;;;24.72;50.58
740;BME280;354;42.694;23.336;2023-09-12T10:41:58;95475.97;;;24.75;49.12
740;BME280;354;42.694;23.336;2023-09-12T10:44:24;95473.59;;;24.87;48.78
740;BME280;354;42.694;23.336;2023-09-12T10:46:51;95478.50;;;24.98;51.10
740;BME280;354;42.694;23.336;2023-09-12T10:49:18;95473.66;;;25.01;51.81
740;BME280;354;42.694;23.336;2023-09-12T10:51:46;95469.97;;;25.10;48.31
740;BME280;354;42.694;23.336;2023-09-12T10:54:16;95466.81;;;25.08;48.02
740;BME280;354;42.694;23.336;2023-09-12T10:57:02;95461.97;;;25.05;47.42
740;BME280;354;42.694;23.336;2023-09-12T10:59:28;95443.03;;;24.96;49.92
740;BME280;354;42.694;23.336;2023-09-12T11:05:02;95457.53;;;25.14;51.80
740;BME280;354;42.694;23.336;2023-09-12T11:10:26;95452.28;;;25.23;49.13
740;BME280;354;42.694;23.336;2023-09-12T11:12:56;95446.47;;;25.30;52.66
740;BME280;354;42.694;23.336;2023-09-12T11:15:26;95444.97;;;25.37;48.81
740;BME280;354;42.694;23.336;2023-09-12T11:18:04;95447.56;;;25.42;46.39
740;BME280;354;42.694;23.336;2023-09-12T11:20:53;95439.91;;;25.36;48.43
740;BME280;354;42.694;23.336;2023-09-12T11:23:24;95439.50;;;25.42;46.17
740;BME280;354;42.694;23.336;2023-09-12T11:26:03;95440.81;;;25.45;47.18
740;BME280;354;42.694;23.336;2023-09-12T11:28:30;95440.28;;;25.43;46.04
740;BME280;354;42.694;23.336;2023-09-12T11:30:57;95436.78;;;25.42;46.34
740;BME280;354;42.694;23.336;2023-09-12T11:33:24;95433.81;;;25.44;46.86
740;BME280;354;42.694;23.336;2023-09-12T11:35:53;95436.59;;;25.53;48.02
740;BME280;354;42.694;23.336;2023-09-12T11:38:27;95433.09;;;25.52;46.71
740;BME280;354;42.694;23.336;2023-09-12T11:40:53;95432.81;;;25.54;46.72
740;BME280;354;42.694;23.336;2023-09-12T11:43:22;95417.25;;;25.51;46.50
740;BME280;354;42.694;23.336;2023-09-12T11:45:49;95417.16;;;25.56;47.39
740;BME280;354;42.694;23.336;2023-09-12T11:48:14;95403.47;;;25.52;47.02
740;BME280;354;42.694;23.336;2023-09-12T11:50:39;95414.84;;;25.63;47.99
740;BME280;354;42.694;23.336;2023-09-12T11:53:10;95401.06;;;25.64;46.40
740;BME280;354;42.694;23.336;2023-09-12T11:55:43;95406.16;;;25.66;46.90
740;BME280;354;42.694;23.336;2023-09-12T11:58:11;95403.06;;;25.72;47.34
740;BME280;354;42.694;23.336;2023-09-12T12:00:36;95403.78;;;25.78;47.91
740;BME280;354;42.694;23.336;2023-09-12T12:03:03;95402.34;;;25.81;47.19
740;BME280;354;42.694;23.336;2023-09-12T12:05:29;95405.47;;;25.88;47.77
740;BME280;354;42.694;23.336;2023-09-12T12:07:54;95400.84;;;25.88;46.24
740;BME280;354;42.694;23.336;2023-09-12T12:10:20;95400.34;;;25.86;46.20
740;BME280;354;42.694;23.336;2023-09-12T12:12:46;95394.69;;;25.88;45.97
740;BME280;354;42.694;23.336;2023-09-12T12:15:12;95397.16;;;25.84;46.41
740;BME280;354;42.694;23.336;2023-09-12T12:17:37;95401.09;;;25.78;46.59
740;BME280;354;42.694;23.336;2023-09-12T12:20:07;95401.66;;;25.75;47.02
740;BME280;354;42.694;23.336;2023-09-12T12:22:33;95395.97;;;25.77;45.37
740;BME280;354;42.694;23.336;2023-09-12T12:25:06;95395.59;;;25.83;45.92
740;BME280;354;42.694;23.336;2023-09-12T12:27:31;95389.56;;;25.86;46.21
740;BME280;354;42.694;23.336;2023-09-12T12:29:56;95393.84;;;25.87;45.50
740;BME280;354;42.694;23.336;2023-09-12T12:32:22;95365.84;;;25.74;45.72
740;BME280;354;42.694;23.336;2023-09-12T12:34:48;95385.47;;;25.89;44.96
740;BME280;354;42.694;23.336;2023-09-12T12:37:14;95378.72;;;25.78;45.40
740;BME280;354;42.694;23.336;2023-09-12T12:39:42;95386.28;;;25.89;44.85
740;BME280;354;42.694;23.336;2023-09-12T12:42:09;95382.38;;;25.82;45.32
740;BME280;354;42.694;23.336;2023-09-12T12:44:34;95382.97;;;25.92;45.07
740;BME280;354;42.694;23.336;2023-09-12T12:47:04;95385.38;;;25.94;45.08
740;BME280;354;42.694;23.336;2023-09-12T12:49:36;95378.34;;;25.93;45.69
740;BME280;354;42.694;23.336;2023-09-12T12:52:02;95378.75;;;26.00;45.51
740;BME280;354;42.694;23.336;2023-09-12T12:54:31;95366.88;;;26.01;45.54
740;BME280;354;42.694;23.336;2023-09-12T12:56:57;95357.19;;;26.00;44.85
740;BME280;354;42.694;23.336;2023-09-12T12:59:23;95367.44;;;26.12;44.91
740;BME280;354;42.694;23.336;2023-09-12T13:01:50;95371.50;;;26.09;44.16
740;BME280;354;42.694;23.336;2023-09-12T13:04:15;95369.31;;;26.11;44.33
740;BME280;354;42.694;23.336;2023-09-12T13:06:41;95366.00;;;26.14;43.25
740;BME280;354;42.694;23.336;2023-09-12T13:09:07;95355.53;;;26.13;43.65
740;BME280;354;42.694;23.336;2023-09-12T13:11:34;95363.03;;;26.16;44.33
740;BME280;354;42.694;23.336;2023-09-12T13:14:00;95362.72;;;26.17;43.56
740;BME280;354;42.694;23.336;2023-09-12T13:16:26;95353.03;;;26.16;43.75
740;BME280;354;42.694;23.336;2023-09-12T13:18:52;95362.28;;;26.24;44.28
740;BME280;354;42.694;23.336;2023-09-12T13:21:17;95359.88;;;26.22;43.31
740;BME280;354;42.694;23.336;2023-09-12T13:23:42;95354.81;;;26.21;42.59
740;BME280;354;42.694;23.336;2023-09-12T13:26:09;95361.28;;;26.20;42.20
740;BME280;354;42.694;23.336;2023-09-12T13:28:34;95352.28;;;26.24;41.37
740;BME280;354;42.694;23.336;2023-09-12T13:31:00;95351.00;;;26.22;41.69
740;BME280;354;42.694;23.336;2023-09-12T13:33:25;95353.75;;;26.31;40.94
740;BME280;354;42.694;23.336;2023-09-12T13:35:51;95344.81;;;26.21;41.38
740;BME280;354;42.694;23.336;2023-09-12T13:38:17;95342.13;;;26.21;41.60
740;BME280;354;42.694;23.336;2023-09-12T13:40:45;95344.19;;;26.24;41.67
740;BME280;354;42.694;23.336;2023-09-12T13:43:11;95338.66;;;26.30;41.30
740;BME280;354;42.694;23.336;2023-09-12T13:45:37;95341.38;;;26.30;41.24
740;BME280;354;42.694;23.336;2023-09-12T13:48:03;95351.72;;;26.36;41.61
740;BME280;354;42.694;23.336;2023-09-12T13:50:29;95345.53;;;26.36;41.18
740;BME280;354;42.694;23.336;2023-09-12T13:52:55;95340.78;;;26.33;40.85
740;BME280;354;42.694;23.336;2023-09-12T13:55:34;95336.97;;;26.34;41.38
740;BME280;354;42.694;23.336;2023-09-12T13:58:03;95335.53;;;26.36;41.29
740;BME280;354;42.694;23.336;2023-09-12T14:00:30;95334.13;;;26.39;42.26
740;BME280;354;42.694;23.336;2023-09-12T14:02:55;95334.63;;;26.41;40.92
740;BME280;354;42.694;23.336;2023-09-12T14:05:21;95335.25;;;26.38;42.52
740;BME280;354;42.694;23.336;2023-09-12T14:07:46;95335.53;;;26.36;41.80
740;BME280;354;42.694;23.336;2023-09-12T14:10:12;95334.44;;;26.37;41.79
740;BME280;354;42.694;23.336;2023-09-12T14:12:38;95339.84;;;26.37;42.04
740;BME280;354;42.694;23.336;2023-09-12T14:15:03;95342.22;;;26.39;41.84
740;BME280;354;42.694;23.336;2023-09-12T14:17:30;95337.31;;;26.41;41.36
740;BME280;354;42.694;23.336;2023-09-12T14:19:56;95324.03;;;26.22;42.13
740;BME280;354;42.694;23.336;2023-09-12T14:22:21;95334.19;;;26.25;42.30
740;BME280;354;42.694;23.336;2023-09-12T14:24:47;95339.22;;;26.18;44.51
740;BME280;354;42.694;23.336;2023-09-12T14:27:12;95337.34;;;26.18;44.12
740;BME280;354;42.694;23.336;2023-09-12T14:29:38;95334.75;;;26.13;42.20
740;BME280;354;42.694;23.336;2023-09-12T14:32:04;95336.53;;;26.18;41.78
740;BME280;354;42.694;23.336;2023-09-12T14:34:29;95342.59;;;26.23;41.70
740;BME280;354;42.694;23.336;2023-09-12T14:36:57;95330.91;;;26.28;41.91
740;BME280;354;42.694;23.336;2023-09-12T14:39:23;95331.81;;;26.23;41.30
740;BME280;354;42.694;23.336;2023-09-12T14:41:49;95329.88;;;26.15;40.55
740;BME280;354;42.694;23.336;2023-09-12T14:44:26;95329.22;;;26.10;41.91
740;BME280;354;42.694;23.336;2023-09-12T14:46:52;95326.63;;;26.05;42.01
740;BME280;354;42.694;23.336;2023-09-12T14:49:17;95316.22;;;25.89;41.79
740;BME280;354;42.694;23.336;2023-09-12T14:51:43;95321.91;;;25.88;42.47
740;BME280;354;42.694;23.336;2023-09-12T14:54:08;95323.50;;;25.89;41.38
740;BME280;354;42.694;23.336;2023-09-12T14:56:34;95325.41;;;25.88;40.28
740;BME280;354;42.694;23.336;2023-09-12T14:59:01;95323.84;;;25.96;40.07
740;BME280;354;42.694;23.336;2023-09-12T15:01:26;95329.25;;;25.96;40.26
740;BME280;354;42.694;23.336;2023-09-12T15:03:52;95318.16;;;25.97;40.25
740;BME280;354;42.694;23.336;2023-09-12T15:06:18;95325.97;;;25.99;40.51
740;BME280;354;42.694;23.336;2023-09-12T15:08:44;95329.72;;;25.98;39.86
740;BME280;354;42.694;23.336;2023-09-12T15:11:09;95310.81;;;25.89;40.13
740;BME280;354;42.694;23.336;2023-09-12T15:13:35;95328.69;;;26.08;40.94
740;BME280;354;42.694;23.336;2023-09-12T15:16:01;95315.78;;;25.96;40.92
740;BME280;354;42.694;23.336;2023-09-12T15:18:27;95328.69;;;26.08;41.62
740;BME280;354;42.694;23.336;2023-09-12T15:20:53;95329.94;;;26.01;41.37
740;BME280;354;42.694;23.336;2023-09-12T15:23:18;95320.19;;;25.92;42.56
740;BME280;354;42.694;23.336;2023-09-12T15:25:44;95331.75;;;25.92;41.77
740;BME280;354;42.694;23.336;2023-09-12T15:28:09;95326.56;;;25.96;41.17
740;BME280;354;42.694;23.336;2023-09-12T15:30:35;95323.97;;;25.91;40.65
740;BME280;354;42.694;23.336;2023-09-12T15:33:00;95306.47;;;25.80;40.50
740;BME280;354;42.694;23.336;2023-09-12T15:35:26;95319.34;;;25.83;41.35
740;BME280;354;42.694;23.336;2023-09-12T15:37:51;95321.34;;;25.77;42.05
740;BME280;354;42.694;23.336;2023-09-12T15:40:17;95314.25;;;25.67;41.40
740;BME280;354;42.694;23.336;2023-09-12T15:42:42;95319.72;;;25.76;41.68
740;BME280;354;42.694;23.336;2023-09-12T15:45:08;95315.53;;;25.70;41.83
740;BME280;354;42.694;23.336;2023-09-12T15:47:35;95317.56;;;25.64;42.28
740;BME280;354;42.694;23.336;2023-09-12T15:50:01;95305.25;;;25.49;44.72
740;BME280;354;42.694;23.336;2023-09-12T15:52:26;95320.88;;;25.47;42.85